sensor_id;sensor_type;location;lat;lon;timestamp;P1;P2;P0
50827;PMS7003;36804;40.218;116.442;2023-04-24T00:01:13;49.25;30.50;18.00
50827;PMS7003;36804;40.218;116.442;2023-04-24T00:06:19;53.00;31.75;20.00
50827;PMS7003;36804;40.218;116.442;2023-04-24T00:11:24;54.25;33.25;20.75
50827;PMS7003;36804;40.218;116.442;2023-04-24T00:16:30;56.50;36.00;22.00
50827;PMS7003;36804;40.218;116.442;2023-04-24T00:21:34;59.50;38.50;25.50
50827;PMS7003;36804;40.218;116.442;2023-04-24T00:26:39;67.75;43.50;27.25
50827;PMS7003;36804;40.218;116.442;2023-04-24T00:31:44;59.50;40.25;22.25
50827;PMS7003;36804;40.218;116.442;2023-04-24T00:36:50;68.00;43.00;25.25
50827;PMS7003;36804;40.218;116.442;2023-04-24T00:41:56;63.50;41.00;26.50
50827;PMS7003;36804;40.218;116.442;2023-04-24T00:47:01;64.75;36.25;25.00
50827;PMS7003;36804;40.218;116.442;2023-04-24T00:52:08;55.75;35.00;21.00
50827;PMS7003;36804;40.218;116.442;2023-04-24T00:57:13;56.00;37.25;22.75
50827;PMS7003;36804;40.218;116.442;2023-04-24T01:02:19;53.75;36.00;21.00
50827;PMS7003;36804;40.218;116.442;2023-04-24T01:07:26;55.25;31.25;19.25
50827;PMS7003;36804;40.218;116.442;2023-04-24T01:12:32;53.25;33.00;20.00
50827;PMS7003;36804;40.218;116.442;2023-04-24T01:17:37;53.75;33.50;20.00
50827;PMS7003;36804;40.218;116.442;2023-04-24T01:22:43;51.50;33.00;19.25
50827;PMS7003;36804;40.218;116.442;2023-04-24T01:27:49;56.75;34.75;20.25
50827;PMS7003;36804;40.218;116.442;2023-04-24T01:32:55;59.75;34.50;21.75
50827;PMS7003;36804;40.218;116.442;2023-04-24T01:38:00;59.50;40.50;23.00
50827;PMS7003;36804;40.218;116.442;2023-04-24T01:43:06;59.50;37.50;24.00
50827;PMS7003;36804;40.218;116.442;2023-04-24T01:48:12;58.75;36.50;23.75
50827;PMS7003;36804;40.218;116.442;2023-04-24T01:53:17;55.00;36.50;22.75
50827;PMS7003;36804;40.218;116.442;2023-04-24T01:58:22;56.75;36.75;23.00
50827;PMS7003;36804;40.218;116.442;2023-04-24T02:03:27;53.25;34.25;22.00
50827;PMS7003;36804;40.218;116.442;2023-04-24T02:08:33;57.50;35.00;19.50
50827;PMS7003;36804;40.218;116.442;2023-04-24T02:13:37;52.50;31.75;19.25
50827;PMS7003;36804;40.218;116.442;2023-04-24T02:18:43;49.00;30.75;17.00
50827;PMS7003;36804;40.218;116.442;2023-04-24T02:23:48;46.50;29.50;16.50
50827;PMS7003;36804;40.218;116.442;2023-04-24T02:28:53;50.25;27.75;17.50
50827;PMS7003;36804;40.218;116.442;2023-04-24T02:33:59;48.75;27.75;17.00
50827;PMS7003;36804;40.218;116.442;2023-04-24T02:39:04;50.25;29.00;18.25
50827;PMS7003;36804;40.218;116.442;2023-04-24T02:44:09;48.25;29.00;16.25
50827;PMS7003;36804;40.218;116.442;2023-04-24T02:49:14;47.75;30.00;18.00
50827;PMS7003;36804;40.218;116.442;2023-04-24T02:54:19;48.25;26.25;16.50
50827;PMS7003;36804;40.218;116.442;2023-04-24T02:59:24;49.25;30.50;19.25
50827;PMS7003;36804;40.218;116.442;2023-04-24T03:04:31;47.50;30.00;15.75
50827;PMS7003;36804;40.218;116.442;2023-04-24T03:09:36;45.50;23.75;13.75
50827;PMS7003;36804;40.218;116.442;2023-04-24T03:14:41;45.25;25.25;14.75
50827;PMS7003;36804;40.218;116.442;2023-04-24T03:19:46;42.50;21.75;11.75
50827;PMS7003;36804;40.218;116.442;2023-04-24T03:24:52;40.50;19.25;13.00
50827;PMS7003;36804;40.218;116.442;2023-04-24T03:29:59;39.00;18.75;12.25
50827;PMS7003;36804;40.218;116.442;2023-04-24T03:35:15;46.50;26.00;13.75
50827;PMS7003;36804;40.218;116.442;2023-04-24T03:40:21;41.75;25.50;15.00
50827;PMS7003;36804;40.218;116.442;2023-04-24T03:45:26;50.50;26.75;16.50
50827;PMS7003;36804;40.218;116.442;2023-04-24T03:50:31;49.50;28.25;16.25
50827;PMS7003;36804;40.218;116.442;2023-04-24T03:55:37;46.75;27.75;17.25
50827;PMS7003;36804;40.218;116.442;2023-04-24T04:00:43;47.75;27.50;17.75
50827;PMS7003;36804;40.218;116.442;2023-04-24T04:06:18;48.00;25.75;17.50
50827;PMS7003;36804;40.218;116.442;2023-04-24T04:11:25;49.25;30.00;17.50
50827;PMS7003;36804;40.218;116.442;2023-04-24T04:16:30;47.00;29.00;18.00
50827;PMS7003;36804;40.218;116.442;2023-04-24T04:21:37;46.50;29.50;18.00
50827;PMS7003;36804;40.218;116.442;2023-04-24T04:26:58;44.75;28.50;16.50
50827;PMS7003;36804;40.218;116.442;2023-04-24T04:32:11;51.25;27.00;17.25
50827;PMS7003;36804;40.218;116.442;2023-04-24T04:37:16;47.00;26.50;15.50
50827;PMS7003;36804;40.218;116.442;2023-04-24T04:42:38;39.00;22.25;15.50
50827;PMS7003;36804;40.218;116.442;2023-04-24T04:47:44;44.75;25.25;17.25
50827;PMS7003;36804;40.218;116.442;2023-04-24T04:52:50;47.50;27.25;16.75
50827;PMS7003;36804;40.218;116.442;2023-04-24T04:58:02;40.50;25.00;16.00
50827;PMS7003;36804;40.218;116.442;2023-04-24T05:03:07;41.25;26.50;16.25
50827;PMS7003;36804;40.218;116.442;2023-04-24T05:08:30;42.00;22.00;13.75
50827;PMS7003;36804;40.218;116.442;2023-04-24T05:13:38;37.75;19.25;11.25
50827;PMS7003;36804;40.218;116.442;2023-04-24T05:18:48;35.00;17.50;11.50
50827;PMS7003;36804;40.218;116.442;2023-04-24T05:23:58;40.75;21.50;11.25
50827;PMS7003;36804;40.218;116.442;2023-04-24T05:29:38;35.00;19.00;11.00
50827;PMS7003;36804;40.218;116.442;2023-04-24T05:34:44;27.75;14.00;10.00
50827;PMS7003;36804;40.218;116.442;2023-04-24T05:39:50;36.50;16.00;12.00
50827;PMS7003;36804;40.218;116.442;2023-04-24T05:44:55;30.00;16.50;9.50
50827;PMS7003;36804;40.218;116.442;2023-04-24T05:50:01;30.75;13.75;9.00
50827;PMS7003;36804;40.218;116.442;2023-04-24T05:55:06;31.00;14.25;10.75
50827;PMS7003;36804;40.218;116.442;2023-04-24T06:00:13;29.75;14.25;9.50
50827;PMS7003;36804;40.218;116.442;2023-04-24T06:05:31;36.00;15.25;8.50
50827;PMS7003;36804;40.218;116.442;2023-04-24T06:10:37;26.25;11.25;8.25
50827;PMS7003;36804;40.218;116.442;2023-04-24T06:15:44;34.25;13.75;9.00
50827;PMS7003;36804;40.218;116.442;2023-04-24T06:20:59;27.25;12.25;8.25
50827;PMS7003;36804;40.218;116.442;2023-04-24T06:26:05;28.75;14.25;8.50
50827;PMS7003;36804;40.218;116.442;2023-04-24T06:31:10;29.50;13.00;9.00
50827;PMS7003;36804;40.218;116.442;2023-04-24T06:36:15;27.75;13.75;7.50
50827;PMS7003;36804;40.218;116.442;2023-04-24T06:41:20;27.00;12.75;7.00
50827;PMS7003;36804;40.218;116.442;2023-04-24T06:46:26;29.50;9.75;5.75
50827;PMS7003;36804;40.218;116.442;2023-04-24T06:51:33;24.50;9.00;6.75
50827;PMS7003;36804;40.218;116.442;2023-04-24T06:56:38;28.75;10.25;7.00
50827;PMS7003;36804;40.218;116.442;2023-04-24T07:01:42;28.50;11.00;7.50
50827;PMS7003;36804;40.218;116.442;2023-04-24T07:06:48;23.00;8.00;6.75
50827;PMS7003;36804;40.218;116.442;2023-04-24T07:11:56;26.75;8.75;6.50
50827;PMS7003;36804;40.218;116.442;2023-04-24T07:17:02;26.25;11.50;6.00
50827;PMS7003;36804;40.218;116.442;2023-04-24T07:22:08;23.75;9.75;7.25
50827;PMS7003;36804;40.218;116.442;2023-04-24T07:27:13;27.75;9.75;7.25
50827;PMS7003;36804;40.218;116.442;2023-04-24T07:32:19;26.00;11.75;7.00
50827;PMS7003;36804;40.218;116.442;2023-04-24T07:37:23;31.75;14.25;10.00
50827;PMS7003;36804;40.218;116.442;2023-04-24T07:42:28;32.50;16.00;12.25
50827;PMS7003;36804;40.218;116.442;2023-04-24T07:47:35;28.00;12.75;7.25
50827;PMS7003;36804;40.218;116.442;2023-04-24T07:52:41;28.00;10.00;7.25
50827;PMS7003;36804;40.218;116.442;2023-04-24T07:57:46;25.50;11.25;9.00
50827;PMS7003;36804;40.218;116.442;2023-04-24T08:02:51;27.50;8.75;7.00
50827;PMS7003;36804;40.218;116.442;2023-04-24T08:07:56;22.50;9.50;6.50
50827;PMS7003;36804;40.218;116.442;2023-04-24T08:13:02;25.25;8.75;6.50
50827;PMS7003;36804;40.218;116.442;2023-04-24T08:18:07;23.50;7.75;5.75
50827;PMS7003;36804;40.218;116.442;2023-04-24T08:23:13;24.00;9.25;7.00
50827;PMS7003;36804;40.218;116.442;2023-04-24T08:28:18;20.25;6.50;5.75
50827;PMS7003;36804;40.218;116.442;2023-04-24T08:33:24;27.50;9.25;5.00
50827;PMS7003;36804;40.218;116.442;2023-04-24T08:38:29;27.25;10.75;6.00
50827;PMS7003;36804;40.218;116.442;2023-04-24T08:43:34;26.00;9.00;6.00
50827;PMS7003;36804;40.218;116.442;2023-04-24T08:48:41;25.50;9.00;6.00
50827;PMS7003;36804;40.218;116.442;2023-04-24T08:53:46;22.00;8.00;4.75
50827;PMS7003;36804;40.218;116.442;2023-04-24T08:58:51;26.00;8.50;4.50
50827;PMS7003;36804;40.218;116.442;2023-04-24T09:03:57;25.25;10.00;4.75
50827;PMS7003;36804;40.218;116.442;2023-04-24T09:09:02;23.25;9.25;6.00
50827;PMS7003;36804;40.218;116.442;2023-04-24T09:14:08;21.25;8.25;5.00
50827;PMS7003;36804;40.218;116.442;2023-04-24T09:19:14;22.25;8.75;4.00
50827;PMS7003;36804;40.218;116.442;2023-04-24T09:24:20;28.75;10.75;6.25
50827;PMS7003;36804;40.218;116.442;2023-04-24T09:29:26;23.50;8.50;5.25
50827;PMS7003;36804;40.218;116.442;2023-04-24T09:34:31;22.50;7.50;4.00
50827;PMS7003;36804;40.218;116.442;2023-04-24T09:39:36;22.50;8.00;5.00
50827;PMS7003;36804;40.218;116.442;2023-04-24T09:44:41;21.25;8.00;5.25
50827;PMS7003;36804;40.218;116.442;2023-04-24T09:49:46;26.00;10.00;5.50
50827;PMS7003;36804;40.218;116.442;2023-04-24T09:54:54;22.25;5.75;3.75
50827;PMS7003;36804;40.218;116.442;2023-04-24T09:59:59;25.50;8.00;5.00
50827;PMS7003;36804;40.218;116.442;2023-04-24T10:05:12;23.50;8.25;4.50
50827;PMS7003;36804;40.218;116.442;2023-04-24T10:10:17;23.75;7.00;4.00
50827;PMS7003;36804;40.218;116.442;2023-04-24T10:15:23;20.00;7.25;5.00
50827;PMS7003;36804;40.218;116.442;2023-04-24T10:20:29;23.75;9.00;5.00
50827;PMS7003;36804;40.218;116.442;2023-04-24T10:25:35;23.50;8.25;5.25
50827;PMS7003;36804;40.218;116.442;2023-04-24T10:30:43;26.25;7.00;4.00
50827;PMS7003;36804;40.218;116.442;2023-04-24T10:35:49;25.00;9.00;5.00
50827;PMS7003;36804;40.218;116.442;2023-04-24T10:41:11;25.75;7.00;5.00
50827;PMS7003;36804;40.218;116.442;2023-04-24T10:46:24;22.25;8.75;6.25
50827;PMS7003;36804;40.218;116.442;2023-04-24T10:51:46;21.00;8.25;6.00
50827;PMS7003;36804;40.218;116.442;2023-04-24T10:56:51;25.25;12.00;6.00
50827;PMS7003;36804;40.218;116.442;2023-04-24T11:01:57;21.25;8.00;4.25
50827;PMS7003;36804;40.218;116.442;2023-04-24T11:07:04;22.75;8.50;5.75
50827;PMS7003;36804;40.218;116.442;2023-04-24T11:12:10;24.75;8.00;5.75
50827;PMS7003;36804;40.218;116.442;2023-04-24T11:17:27;23.25;9.00;6.00
50827;PMS7003;36804;40.218;116.442;2023-04-24T11:22:32;26.00;12.25;6.75
50827;PMS7003;36804;40.218;116.442;2023-04-24T11:27:44;26.25;8.50;6.00
50827;PMS7003;36804;40.218;116.442;2023-04-24T11:32:52;23.50;7.75;6.00
50827;PMS7003;36804;40.218;116.442;2023-04-24T11:37:57;27.50;10.00;8.00
50827;PMS7003;36804;40.218;116.442;2023-04-24T11:43:23;31.00;11.50;7.50
50827;PMS7003;36804;40.218;116.442;2023-04-24T11:48:29;28.75;9.25;6.50
50827;PMS7003;36804;40.218;116.442;2023-04-24T11:53:35;34.25;15.25;8.00
50827;PMS7003;36804;40.218;116.442;2023-04-24T11:58:41;28.00;11.50;7.00
50827;PMS7003;36804;40.218;116.442;2023-04-24T12:03:49;29.75;11.00;6.50
50827;PMS7003;36804;40.218;116.442;2023-04-24T12:08:55;25.00;11.50;6.50
50827;PMS7003;36804;40.218;116.442;2023-04-24T12:14:11;26.25;8.75;5.00
50827;PMS7003;36804;40.218;116.442;2023-04-24T12:19:22;22.25;7.25;5.25
50827;PMS7003;36804;40.218;116.442;2023-04-24T12:24:27;30.75;9.50;4.75
50827;PMS7003;36804;40.218;116.442;2023-04-24T12:29:32;30.75;9.50;5.00
50827;PMS7003;36804;40.218;116.442;2023-04-24T12:34:37;32.25;10.25;7.75
50827;PMS7003;36804;40.218;116.442;2023-04-24T12:45:06;24.75;10.00;4.50
50827;PMS7003;36804;40.218;116.442;2023-04-24T12:50:13;31.00;8.25;4.00
50827;PMS7003;36804;40.218;116.442;2023-04-24T12:55:18;22.50;8.00;5.00
50827;PMS7003;36804;40.218;116.442;2023-04-24T13:00:23;24.50;8.00;6.00
50827;PMS7003;36804;40.218;116.442;2023-04-24T13:05:28;21.25;8.25;4.75
50827;PMS7003;36804;40.218;116.442;2023-04-24T13:10:34;26.75;11.00;4.25
50827;PMS7003;36804;40.218;116.442;2023-04-24T13:15:39;23.25;10.00;4.50
50827;PMS7003;36804;40.218;116.442;2023-04-24T13:20:44;22.25;8.25;6.00
50827;PMS7003;36804;40.218;116.442;2023-04-24T13:25:51;22.00;7.75;5.00
50827;PMS7003;36804;40.218;116.442;2023-04-24T13:31:00;24.00;9.25;4.75
50827;PMS7003;36804;40.218;116.442;2023-04-24T13:36:06;24.25;8.00;5.25
50827;PMS7003;36804;40.218;116.442;2023-04-24T13:41:11;23.00;9.00;6.00
50827;PMS7003;36804;40.218;116.442;2023-04-24T13:46:16;24.75;8.00;5.00
50827;PMS7003;36804;40.218;116.442;2023-04-24T13:51:22;24.50;9.00;6.00
50827;PMS7003;36804;40.218;116.442;2023-04-24T13:56:27;26.50;8.25;4.00
50827;PMS7003;36804;40.218;116.442;2023-04-24T14:01:33;24.75;6.00;4.25
50827;PMS7003;36804;40.218;116.442;2023-04-24T14:06:38;22.25;8.00;5.00
50827;PMS7003;36804;40.218;116.442;2023-04-24T14:11:44;23.75;10.00;7.00
50827;PMS7003;36804;40.218;116.442;2023-04-24T14:16:50;26.75;8.00;5.00
50827;PMS7003;36804;40.218;116.442;2023-04-24T14:21:55;31.25;11.00;6.00
50827;PMS7003;36804;40.218;116.442;2023-04-24T14:27:03;24.25;9.00;6.00
50827;PMS7003;36804;40.218;116.442;2023-04-24T14:32:08;20.25;7.75;5.00
50827;PMS7003;36804;40.218;116.442;2023-04-24T14:37:13;29.75;12.50;8.00
50827;PMS7003;36804;40.218;116.442;2023-04-24T14:42:19;25.00;8.00;4.25
50827;PMS7003;36804;40.218;116.442;2023-04-24T14:47:24;25.50;7.75;5.25
50827;PMS7003;36804;40.218;116.442;2023-04-24T14:52:29;29.00;10.25;8.00
50827;PMS7003;36804;40.218;116.442;2023-04-24T14:57:34;21.75;8.75;5.75
50827;PMS7003;36804;40.218;116.442;2023-04-24T15:02:40;27.75;11.00;7.75
50827;PMS7003;36804;40.218;116.442;2023-04-24T15:07:48;25.75;9.75;6.00
50827;PMS7003;36804;40.218;116.442;2023-04-24T15:12:55;22.50;8.75;4.75
50827;PMS7003;36804;40.218;116.442;2023-04-24T15:18:00;26.75;10.25;5.50
50827;PMS7003;36804;40.218;116.442;2023-04-24T15:23:05;25.25;9.75;6.25
50827;PMS7003;36804;40.218;116.442;2023-04-24T15:28:11;28.75;10.50;6.00
50827;PMS7003;36804;40.218;116.442;2023-04-24T15:33:17;26.75;9.50;7.25
50827;PMS7003;36804;40.218;116.442;2023-04-24T15:38:22;28.00;12.00;6.75
50827;PMS7003;36804;40.218;116.442;2023-04-24T15:43:27;27.25;11.00;7.00
50827;PMS7003;36804;40.218;116.442;2023-04-24T15:48:38;29.25;12.50;7.00
50827;PMS7003;36804;40.218;116.442;2023-04-24T15:53:45;26.00;12.50;8.00
50827;PMS7003;36804;40.218;116.442;2023-04-24T15:58:50;28.50;11.50;8.00
50827;PMS7003;36804;40.218;116.442;2023-04-24T16:03:55;32.75;16.50;9.50
50827;PMS7003;36804;40.218;116.442;2023-04-24T16:09:00;23.75;10.25;7.00
50827;PMS7003;36804;40.218;116.442;2023-04-24T16:14:05;31.25;13.75;8.75
50827;PMS7003;36804;40.218;116.442;2023-04-24T16:19:12;33.50;14.75;7.25
50827;PMS7003;36804;40.218;116.442;2023-04-24T16:24:18;29.75;14.00;7.75
50827;PMS7003;36804;40.218;116.442;2023-04-24T16:29:23;28.00;12.75;6.00
50827;PMS7003;36804;40.218;116.442;2023-04-24T16:34:28;27.75;12.00;6.75
50827;PMS7003;36804;40.218;116.442;2023-04-24T16:39:33;29.00;13.25;10.00
50827;PMS7003;36804;40.218;116.442;2023-04-24T16:44:38;27.50;12.00;7.75
50827;PMS7003;36804;40.218;116.442;2023-04-24T16:49:44;32.50;13.50;8.00
50827;PMS7003;36804;40.218;116.442;2023-04-24T16:54:49;26.25;12.50;7.50
50827;PMS7003;36804;40.218;116.442;2023-04-24T16:59:54;29.75;12.75;9.25
50827;PMS7003;36804;40.218;116.442;2023-04-24T17:04:59;30.75;13.25;8.50
50827;PMS7003;36804;40.218;116.442;2023-04-24T17:10:05;30.25;15.50;9.50
50827;PMS7003;36804;40.218;116.442;2023-04-24T17:15:12;32.00;14.50;8.00
50827;PMS7003;36804;40.218;116.442;2023-04-24T17:20:17;35.25;18.00;10.75
50827;PMS7003;36804;40.218;116.442;2023-04-24T17:25:24;29.50;15.50;9.00
50827;PMS7003;36804;40.218;116.442;2023-04-24T17:30:29;30.00;13.25;9.00
50827;PMS7003;36804;40.218;116.442;2023-04-24T17:35:34;33.50;14.25;9.00
50827;PMS7003;36804;40.218;116.442;2023-04-24T17:40:39;31.00;14.50;8.00
50827;PMS7003;36804;40.218;116.442;2023-04-24T17:45:44;32.00;18.00;10.50
50827;PMS7003;36804;40.218;116.442;2023-04-24T17:50:49;37.50;16.75;11.00
50827;PMS7003;36804;40.218;116.442;2023-04-24T17:55:54;32.00;16.00;9.25
50827;PMS7003;36804;40.218;116.442;2023-04-24T18:01:02;30.75;14.25;8.50
50827;PMS7003;36804;40.218;116.442;2023-04-24T18:06:07;31.50;14.00;8.75
50827;PMS7003;36804;40.218;116.442;2023-04-24T18:11:13;35.75;17.25;10.00
50827;PMS7003;36804;40.218;116.442;2023-04-24T18:16:18;31.75;16.50;9.50
50827;PMS7003;36804;40.218;116.442;2023-04-24T18:21:24;36.25;15.50;9.00
50827;PMS7003;36804;40.218;116.442;2023-04-24T18:26:29;32.25;16.50;9.75
50827;PMS7003;36804;40.218;116.442;2023-04-24T18:31:34;38.50;19.75;11.00
50827;PMS7003;36804;40.218;116.442;2023-04-24T18:36:39;33.00;17.50;11.75
50827;PMS7003;36804;40.218;116.442;2023-04-24T18:41:44;32.50;15.50;10.00
50827;PMS7003;36804;40.218;116.442;2023-04-24T18:46:49;32.50;17.50;10.00
50827;PMS7003;36804;40.218;116.442;2023-04-24T18:51:54;32.50;19.25;10.00
50827;PMS7003;36804;40.218;116.442;2023-04-24T18:57:00;32.25;17.50;11.00
50827;PMS7003;36804;40.218;116.442;2023-04-24T19:02:05;33.75;18.25;11.00
50827;PMS7003;36804;40.218;116.442;2023-04-24T19:07:10;30.75;16.00;8.00
50827;PMS7003;36804;40.218;116.442;2023-04-24T19:12:15;36.75;20.50;11.00
50827;PMS7003;36804;40.218;116.442;2023-04-24T19:17:22;32.75;15.75;11.00
50827;PMS7003;36804;40.218;116.442;2023-04-24T19:22:28;35.00;18.00;11.25
50827;PMS7003;36804;40.218;116.442;2023-04-24T19:27:33;38.00;17.75;9.50
50827;PMS7003;36804;40.218;116.442;2023-04-24T19:32:38;38.00;20.75;11.00
50827;PMS7003;36804;40.218;116.442;2023-04-24T19:37:43;34.50;20.00;11.25
50827;PMS7003;36804;40.218;116.442;2023-04-24T19:42:48;30.25;16.75;8.50
50827;PMS7003;36804;40.218;116.442;2023-04-24T19:47:53;32.25;16.25;11.00
50827;PMS7003;36804;40.218;116.442;2023-04-24T19:52:59;35.00;21.50;12.00
50827;PMS7003;36804;40.218;116.442;2023-04-24T19:58:04;33.25;18.50;10.50
50827;PMS7003;36804;40.218;116.442;2023-04-24T20:03:09;36.00;20.50;11.00
50827;PMS7003;36804;40.218;116.442;2023-04-24T20:08:33;45.00;25.00;14.00
50827;PMS7003;36804;40.218;116.442;2023-04-24T20:13:43;35.25;20.00;12.00
50827;PMS7003;36804;40.218;116.442;2023-04-24T20:18:48;37.75;21.00;11.50
50827;PMS7003;36804;40.218;116.442;2023-04-24T20:23:53;41.50;22.50;12.25
50827;PMS7003;36804;40.218;116.442;2023-04-24T20:28:57;42.50;24.00;13.25
50827;PMS7003;36804;40.218;116.442;2023-04-24T20:34:02;41.25;16.75;9.50
50827;PMS7003;36804;40.218;116.442;2023-04-24T20:39:07;40.50;22.50;13.50
50827;PMS7003;36804;40.218;116.442;2023-04-24T20:44:12;47.00;25.00;12.50
50827;PMS7003;36804;40.218;116.442;2023-04-24T20:49:17;39.25;21.25;12.75
50827;PMS7003;36804;40.218;116.442;2023-04-24T20:54:22;39.25;22.50;13.00
50827;PMS7003;36804;40.218;116.442;2023-04-24T20:59:28;41.75;23.00;14.00
50827;PMS7003;36804;40.218;116.442;2023-04-24T21:04:33;40.25;18.50;11.00
50827;PMS7003;36804;40.218;116.442;2023-04-24T21:09:41;39.00;21.75;13.50
50827;PMS7003;36804;40.218;116.442;2023-04-24T21:14:46;45.25;23.00;13.00
50827;PMS7003;36804;40.218;116.442;2023-04-24T21:19:53;44.25;24.25;12.00
50827;PMS7003;36804;40.218;116.442;2023-04-24T21:25:01;41.25;21.00;11.50
50827;PMS7003;36804;40.218;116.442;2023-04-24T21:30:06;34.75;21.25;11.50
50827;PMS7003;36804;40.218;116.442;2023-04-24T21:35:11;39.75;22.00;12.00
50827;PMS7003;36804;40.218;116.442;2023-04-24T21:40:16;42.50;21.00;12.00
50827;PMS7003;36804;40.218;116.442;2023-04-24T21:45:21;40.00;24.25;13.25
50827;PMS7003;36804;40.218;116.442;2023-04-24T21:50:27;41.00;21.75;10.75
50827;PMS7003;36804;40.218;116.442;2023-04-24T21:55:32;44.75;23.50;13.00
50827;PMS7003;36804;40.218;116.442;2023-04-24T22:00:37;42.00;22.25;12.00
50827;PMS7003;36804;40.218;116.442;2023-04-24T22:05:42;36.75;21.75;12.00
50827;PMS7003;36804;40.218;116.442;2023-04-24T22:10:47;39.75;22.00;12.00
50827;PMS7003;36804;40.218;116.442;2023-04-24T22:15:52;44.25;26.50;14.75
50827;PMS7003;36804;40.218;116.442;2023-04-24T22:20:57;41.00;25.00;14.00
50827;PMS7003;36804;40.218;116.442;2023-04-24T22:26:04;38.25;23.75;12.00
50827;PMS7003;36804;40.218;116.442;2023-04-24T22:31:09;52.75;34.25;20.75
50827;PMS7003;36804;40.218;116.442;2023-04-24T22:36:15;65.75;43.75;24.50
50827;PMS7003;36804;40.218;116.442;2023-04-24T22:41:20;75.25;53.25;30.75
50827;PMS7003;36804;40.218;116.442;2023-04-24T22:46:25;66.75;44.25;25.00
50827;PMS7003;36804;40.218;116.442;2023-04-24T22:51:30;63.50;43.00;24.00
50827;PMS7003;36804;40.218;116.442;2023-04-24T22:56:38;61.00;39.50;21.75
50827;PMS7003;36804;40.218;116.442;2023-04-24T23:01:43;57.00;37.00;22.25
50827;PMS7003;36804;40.218;116.442;2023-04-24T23:06:48;53.50;35.25;19.50
50827;PMS7003;36804;40.218;116.442;2023-04-24T23:11:53;61.00;38.00;22.75
50827;PMS7003;36804;40.218;116.442;2023-04-24T23:16:58;63.00;42.50;24.75
50827;PMS7003;36804;40.218;116.442;2023-04-24T23:22:03;56.25;34.25;20.75
50827;PMS7003;36804;40.218;116.442;2023-04-24T23:27:08;51.00;34.00;18.50
50827;PMS7003;36804;40.218;116.442;2023-04-24T23:32:13;49.75;34.00;17.00
50827;PMS7003;36804;40.218;116.442;2023-04-24T23:37:18;54.25;33.50;18.50
50827;PMS7003;36804;40.218;116.442;2023-04-24T23:42:23;50.75;28.50;15.00
50827;PMS7003;36804;40.218;116.442;2023-04-24T23:47:28;56.00;31.75;17.75
50827;PMS7003;36804;40.218;116.442;2023-04-24T23:52:33;53.75;35.50;20.50
50827;PMS7003;36804;40.218;116.442;2023-04-24T23:57:39;50.50;33.00;19.00
